Hauptseite
METAR-TAF:

METAR-TAF

Flughäfen :

Johor Bahru, Malaysia

Breite: 01-38N, Länge: 103-40E, Höhe: 37 m

Beobachtung

Neuester Wetterbericht von vor 56 Minuten, um 17:00 UTC
Windstille
Temperatur 26°C
Luftfeuchtigkeit 94%
Luftdruck 1009 hPa
Sichtweite 10 km oder mehr
Leicht bewölkt in der Höhe von 1000 ft

METAR: WMKJ 101700Z 00000KT 9999 FEW010 26/25 Q1009

Zeit: 01:56 (17:56 UTC)

Prognose

Neuester Wetterbericht von vor 56 Minuten, um 17:00 UTC
Gültige Prognose vom 10 um 18 UTC bis 11 um 18 UTC
Wind 3 kt aus unterschiedlichen Richtungen
Sichtweite: 7000 m
Leicht bewölkt in der Höhe von 2200 ft
Wahrscheinlichkeit 40% :
Zeitweise
vom 11 um 05 UTC bis 11 um 09 UTC
Wind 6 kt aus Süd
Sichtweite: 5000 m
Leicht bewölkt in der Höhe von 1000 ft
Leicht bewölkt in der Höhe von 1600 ft, Kumulonimbus.
Gewitter, Regen

TAF: WMKJ 101700Z 1018/1118 VRB03KT 7000 FEW022 PROB40 TEMPO 1105/1109 17006KT 5000 TSRA FEW010 FEW016CB

Wetterbeobachtungen und Prognosen von mehr als 4000 Flughäfen (METAR und TAF Bericht).

Die verfügbaren Stationen werden durch gelbe und rote Markierungen auf der Karte dargestellt.

Führen Sie die Maus auf sie, um den Namen der Station zu sehen.

Darauf klicken, um die Beobachtung von Wetterbeobachtungen und Prognosen zu sehen.

Um die Karte zu ändern : klicken Sie auf den grünen Tasten mit einem schwarzen Kreuz Zum Vergrößern, auf den grünen Button mit einem Gedankenstrich zu verkleinern, oder auf die grünen Pfeile für benachbarte Karten.


METAR-TAF: